Time;durP1;ratioP1;P1;durP2;ratioP2;P2;SDS_P1;SDS_P2;PMS_P1;PMS_P2;Temp;Humidity;BMP_temperature;BMP_pressure;BME280_temperature;BME280_humidity;BME280_pressure;Samples;Min_cycle;Max_cycle;Signal;HPM_P1;HPM_P2
2023/06/15 00:02:15;;;;;;;5.13;2.95;;;;;;;;;;5031350;28;20593;-66
2023/06/15 00:04:43;;;;;;;4.68;2.70;;;;;;;;;;5015696;28;20052;-65
2023/06/15 00:07:10;;;;;;;4.15;2.20;;;;;;;;;;5013859;28;20510;-71
2023/06/15 00:09:37;;;;;;;7.32;2.22;;;;;;;;;;5007842;28;20034;-66
2023/06/15 00:12:09;;;;;;;4.10;2.22;;;;;;;;;;5016307;28;20065;-66
2023/06/15 00:14:35;;;;;;;3.40;1.65;;;;;;;;;;4992585;28;20061;-67
2023/06/15 00:17:03;;;;;;;3.33;1.50;;;;;;;;;;5010150;28;20065;-66
2023/06/15 00:19:29;;;;;;;3.95;1.90;;;;;;;;;;4989888;28;20092;-70
2023/06/15 00:21:56;;;;;;;3.22;1.48;;;;;;;;;;5013314;28;20068;-67
2023/06/15 00:24:23;;;;;;;3.53;1.60;;;;;;;;;;4994146;28;20041;-67
2023/06/15 00:27:10;;;;;;;2.83;1.35;;;;;;;;;;4966507;28;20051;-67
2023/06/15 00:29:37;;;;;;;2.80;1.13;;;;;;;;;;4947878;28;20073;-66
2023/06/15 00:32:07;;;;;;;3.42;1.70;;;;;;;;;;4967839;28;20042;-66
2023/06/15 00:34:33;;;;;;;3.10;1.50;;;;;;;;;;4967240;28;20068;-66
2023/06/15 00:37:00;;;;;;;3.75;1.70;;;;;;;;;;4966479;28;20065;-65
2023/06/15 00:39:27;;;;;;;3.33;1.73;;;;;;;;;;4961389;28;20061;-66
2023/06/15 00:41:53;;;;;;;4.80;1.52;;;;;;;;;;4967160;28;20600;-66
2023/06/15 00:44:20;;;;;;;3.88;1.67;;;;;;;;;;4964745;28;20038;-68
2023/06/15 00:46:47;;;;;;;3.83;2.10;;;;;;;;;;4964885;28;20210;-66
2023/06/15 00:49:14;;;;;;;3.70;1.85;;;;;;;;;;4966313;28;20098;-65
2023/06/15 00:51:41;;;;;;;3.97;2.10;;;;;;;;;;4967139;28;20031;-65
2023/06/15 00:54:09;;;;;;;4.60;1.95;;;;;;;;;;4944747;28;20035;-64
2023/06/15 00:56:36;;;;;;;3.75;2.00;;;;;;;;;;4954915;28;20043;-67
2023/06/15 00:59:03;;;;;;;3.83;2.10;;;;;;;;;;4956997;28;20042;-66
2023/06/15 01:01:29;;;;;;;3.80;2.22;;;;;;;;;;4937196;28;20043;-68
2023/06/15 01:03:57;;;;;;;3.72;2.10;;;;;;;;;;4955585;28;20042;-66
2023/06/15 01:06:24;;;;;;;4.50;2.70;;;;;;;;;;4994648;28;20045;-66
2023/06/15 01:08:52;;;;;;;5.35;2.83;;;;;;;;;;4999072;28;20156;-65
2023/06/15 01:11:19;;;;;;;4.05;2.40;;;;;;;;;;4979664;28;20176;-65
2023/06/15 01:13:46;;;;;;;4.78;2.72;;;;;;;;;;5007587;28;20037;-65
2023/06/15 01:16:22;;;;;;;5.60;2.78;;;;;;;;;;5017057;28;20080;-66
2023/06/15 01:18:50;;;;;;;5.13;2.90;;;;;;;;;;5016214;28;20053;-66
2023/06/15 01:21:17;;;;;;;5.10;2.95;;;;;;;;;;5018255;28;20038;-66
2023/06/15 01:23:51;;;;;;;5.97;3.17;;;;;;;;;;4998228;28;20041;-65
2023/06/15 01:26:24;;;;;;;6.45;3.53;;;;;;;;;;5001453;28;20982;-65
2023/06/15 01:28:52;;;;;;;7.85;3.88;;;;;;;;;;5017881;28;20045;-66
2023/06/15 01:31:19;;;;;;;5.85;4.30;;;;;;;;;;5016656;28;20064;-67
2023/06/15 01:33:50;;;;;;;8.98;4.80;;;;;;;;;;4999929;28;20053;-66
2023/06/15 01:36:17;;;;;;;7.60;4.85;;;;;;;;;;5019650;28;20057;-67
2023/06/15 01:38:46;;;;;;;9.00;5.40;;;;;;;;;;5000421;28;20128;-65
2023/06/15 01:41:13;;;;;;;9.65;6.20;;;;;;;;;;5018609;28;20041;-66
2023/06/15 01:43:40;;;;;;;10.52;6.65;;;;;;;;;;5019757;28;21046;-67
2023/06/15 01:46:07;;;;;;;7.85;6.13;;;;;;;;;;4999989;28;20041;-65
2023/06/15 01:48:34;;;;;;;11.77;7.32;;;;;;;;;;5004622;28;20046;-66
2023/06/15 01:51:02;;;;;;;12.82;9.05;;;;;;;;;;4995981;28;20045;-67
2023/06/15 01:53:30;;;;;;;13.23;9.35;;;;;;;;;;5002542;28;20037;-64
2023/06/15 01:55:59;;;;;;;15.55;9.70;;;;;;;;;;5020807;28;20041;-65
2023/06/15 01:58:25;;;;;;;16.83;11.15;;;;;;;;;;5016853;28;20049;-67
2023/06/15 02:00:52;;;;;;;16.77;11.25;;;;;;;;;;5002829;28;20045;-66
2023/06/15 02:03:19;;;;;;;20.08;14.00;;;;;;;;;;5020402;28;20060;-63
2023/06/15 02:05:46;;;;;;;25.92;16.77;;;;;;;;;;5019340;28;20045;-66
2023/06/15 02:08:12;;;;;;;19.35;12.80;;;;;;;;;;5000417;28;20060;-65
2023/06/15 02:10:39;;;;;;;21.80;15.88;;;;;;;;;;5017416;28;20036;-65
2023/06/15 02:13:11;;;;;;;19.58;14.45;;;;;;;;;;5013306;28;20058;-68
2023/06/15 02:15:38;;;;;;;20.23;13.23;;;;;;;;;;5011247;28;20044;-66
2023/06/15 02:18:12;;;;;;;16.88;12.02;;;;;;;;;;4996722;28;20046;-66
2023/06/15 02:20:41;;;;;;;10.82;7.60;;;;;;;;;;4995377;28;20084;-67
2023/06/15 02:23:08;;;;;;;8.25;5.88;;;;;;;;;;5011835;28;20101;-65
2023/06/15 02:25:35;;;;;;;8.60;5.93;;;;;;;;;;5010388;28;20037;-64
2023/06/15 02:28:01;;;;;;;7.63;4.95;;;;;;;;;;5011087;28;20056;-64
2023/06/15 02:30:28;;;;;;;6.70;4.32;;;;;;;;;;5011247;28;20042;-66
2023/06/15 02:32:59;;;;;;;6.40;3.75;;;;;;;;;;4996477;28;20075;-67
2023/06/15 02:35:26;;;;;;;5.57;3.40;;;;;;;;;;4995918;28;20037;-66
2023/06/15 02:37:53;;;;;;;5.60;3.10;;;;;;;;;;5008327;28;20037;-66
2023/06/15 02:40:20;;;;;;;6.25;2.95;;;;;;;;;;5010758;28;20960;-66
2023/06/15 02:42:46;;;;;;;5.63;3.55;;;;;;;;;;4992820;28;22676;-66
2023/06/15 02:45:13;;;;;;;4.57;2.92;;;;;;;;;;4992718;28;20042;-67
2023/06/15 02:47:40;;;;;;;5.55;3.60;;;;;;;;;;4987683;28;20533;-64
2023/06/15 02:50:07;;;;;;;4.78;3.13;;;;;;;;;;4995938;28;20591;-66
2023/06/15 02:52:36;;;;;;;6.55;3.50;;;;;;;;;;4995967;28;20049;-68
2023/06/15 02:55:03;;;;;;;8.95;3.55;;;;;;;;;;4995625;28;20045;-65
2023/06/15 02:57:30;;;;;;;4.05;2.60;;;;;;;;;;5008669;28;20037;-66
2023/06/15 02:59:57;;;;;;;5.15;2.95;;;;;;;;;;5012949;28;20053;-66
2023/06/15 03:02:23;;;;;;;5.15;3.10;;;;;;;;;;4994598;28;20132;-65
2023/06/15 03:04:50;;;;;;;5.43;2.92;;;;;;;;;;5012757;28;20085;-66
2023/06/15 03:07:22;;;;;;;5.47;3.30;;;;;;;;;;5007015;28;20052;-65
2023/06/15 03:09:50;;;;;;;6.13;3.97;;;;;;;;;;5011840;28;20053;-66
2023/06/15 03:12:17;;;;;;;6.38;4.10;;;;;;;;;;5011248;28;20291;-65
2023/06/15 03:14:44;;;;;;;6.07;3.92;;;;;;;;;;4992696;28;20068;-64
2023/06/15 03:17:12;;;;;;;5.95;3.85;;;;;;;;;;4995101;28;20604;-65
2023/06/15 03:19:43;;;;;;;6.78;4.45;;;;;;;;;;4995457;28;20068;-64
2023/06/15 03:22:10;;;;;;;6.70;4.32;;;;;;;;;;5012284;28;20101;-67
2023/06/15 03:24:39;;;;;;;7.30;5.07;;;;;;;;;;4996744;28;20037;-66
2023/06/15 03:27:07;;;;;;;8.50;5.60;;;;;;;;;;5011205;28;20049;-66
2023/06/15 03:29:36;;;;;;;9.15;6.18;;;;;;;;;;5012300;28;20193;-65
2023/06/15 03:32:06;;;;;;;11.00;7.00;;;;;;;;;;5011446;28;20822;-67
2023/06/15 03:34:33;;;;;;;12.02;7.75;;;;;;;;;;5011066;28;20053;-65
2023/06/15 03:37:00;;;;;;;14.73;9.90;;;;;;;;;;4992992;28;20125;-66
2023/06/15 03:39:27;;;;;;;13.68;9.50;;;;;;;;;;5012937;28;20041;-66
2023/06/15 03:41:53;;;;;;;12.57;8.95;;;;;;;;;;4994475;28;20371;-66
2023/06/15 03:44:20;;;;;;;14.02;9.02;;;;;;;;;;5009291;28;20042;-67
2023/06/15 03:46:47;;;;;;;9.95;7.32;;;;;;;;;;4991979;28;20053;-68
2023/06/15 03:49:16;;;;;;;12.40;8.48;;;;;;;;;;4992537;28;20113;-66
2023/06/15 03:51:42;;;;;;;12.60;8.57;;;;;;;;;;4991571;28;20038;-65
2023/06/15 03:54:09;;;;;;;12.07;7.28;;;;;;;;;;5013354;28;20367;-65
2023/06/15 03:56:56;;;;;;;10.70;7.82;;;;;;;;;;4970606;28;20110;-65
2023/06/15 03:59:23;;;;;;;13.18;8.35;;;;;;;;;;4970382;28;20054;-66
2023/06/15 04:01:50;;;;;;;10.05;6.85;;;;;;;;;;4973520;28;20153;-66
2023/06/15 04:04:17;;;;;;;13.57;8.43;;;;;;;;;;4978335;28;20058;-66
2023/06/15 04:06:46;;;;;;;11.65;8.05;;;;;;;;;;4977058;28;20074;-66
2023/06/15 04:09:14;;;;;;;14.40;10.55;;;;;;;;;;4977045;28;20065;-67
2023/06/15 04:11:41;;;;;;;18.45;11.55;;;;;;;;;;4973474;28;20415;-65
2023/06/15 04:14:07;;;;;;;14.90;9.73;;;;;;;;;;4973638;28;20061;-66
2023/06/15 04:16:34;;;;;;;16.08;11.13;;;;;;;;;;4974217;28;20073;-65
2023/06/15 04:19:01;;;;;;;19.52;13.85;;;;;;;;;;4973556;28;20150;-65
2023/06/15 04:21:27;;;;;;;19.70;13.70;;;;;;;;;;4970426;28;20065;-66
2023/06/15 04:23:55;;;;;;;21.25;14.82;;;;;;;;;;4971340;28;20424;-64
2023/06/15 04:26:22;;;;;;;22.05;15.40;;;;;;;;;;4948383;28;20234;-66
2023/06/15 04:28:49;;;;;;;29.40;19.38;;;;;;;;;;4972071;28;20819;-67
2023/06/15 04:31:20;;;;;;;19.98;13.32;;;;;;;;;;4977565;28;20034;-66
2023/06/15 04:33:48;;;;;;;35.30;22.98;;;;;;;;;;4985134;28;20093;-67
2023/06/15 04:36:16;;;;;;;37.35;25.17;;;;;;;;;;5018425;28;20041;-66
2023/06/15 04:38:46;;;;;;;40.25;28.20;;;;;;;;;;5014827;28;20125;-67
2023/06/15 04:41:14;;;;;;;31.25;20.65;;;;;;;;;;5018052;28;20159;-66
2023/06/15 04:43:41;;;;;;;38.25;27.35;;;;;;;;;;5015376;28;20637;-67
2023/06/15 04:46:08;;;;;;;42.80;29.27;;;;;;;;;;5015411;28;20064;-66
2023/06/15 04:48:35;;;;;;;43.97;30.55;;;;;;;;;;5011947;28;20049;-67
2023/06/15 04:51:02;;;;;;;39.03;26.25;;;;;;;;;;5013041;28;20055;-65
2023/06/15 04:53:29;;;;;;;43.45;28.67;;;;;;;;;;5014400;28;20092;-67
2023/06/15 04:55:56;;;;;;;47.35;29.42;;;;;;;;;;5015699;28;20521;-67
2023/06/15 04:58:22;;;;;;;47.53;31.33;;;;;;;;;;5011233;28;20753;-65
2023/06/15 05:00:49;;;;;;;51.20;34.22;;;;;;;;;;5015191;28;20033;-65
2023/06/15 05:03:18;;;;;;;46.67;32.85;;;;;;;;;;5009110;28;20077;-66
2023/06/15 05:05:45;;;;;;;47.03;31.30;;;;;;;;;;5008744;28;22606;-66
2023/06/15 05:08:13;;;;;;;54.25;34.72;;;;;;;;;;5007080;28;20089;-67
2023/06/15 05:10:40;;;;;;;50.53;34.10;;;;;;;;;;5008265;28;20938;-68
2023/06/15 05:13:07;;;;;;;58.50;37.78;;;;;;;;;;5010086;28;20533;-67
2023/06/15 05:15:34;;;;;;;62.00;36.42;;;;;;;;;;5006575;28;20052;-66
2023/06/15 05:18:01;;;;;;;61.17;38.85;;;;;;;;;;5008146;28;21516;-66
2023/06/15 05:20:28;;;;;;;57.08;36.55;;;;;;;;;;4990988;28;20052;-67
2023/06/15 05:22:56;;;;;;;55.63;35.53;;;;;;;;;;5005352;28;20047;-66
2023/06/15 05:25:23;;;;;;;57.78;35.33;;;;;;;;;;5007962;28;20054;-65
2023/06/15 05:27:49;;;;;;;62.63;38.90;;;;;;;;;;5006097;28;20054;-64
2023/06/15 05:30:16;;;;;;;56.70;35.22;;;;;;;;;;5006022;28;20029;-65
2023/06/15 05:32:42;;;;;;;60.42;38.40;;;;;;;;;;5006278;28;20131;-65
2023/06/15 05:35:10;;;;;;;54.13;35.13;;;;;;;;;;5007279;28;20033;-65
2023/06/15 05:37:37;;;;;;;53.10;32.58;;;;;;;;;;5006992;28;20033;-67
2023/06/15 05:40:04;;;;;;;31.38;21.65;;;;;;;;;;5008749;28;20052;-66
2023/06/15 05:42:31;;;;;;;40.28;26.50;;;;;;;;;;5007627;28;20106;-66
2023/06/15 05:44:58;;;;;;;36.55;23.60;;;;;;;;;;5009903;28;20041;-66
2023/06/15 05:47:24;;;;;;;40.03;24.13;;;;;;;;;;5009092;28;20042;-66
2023/06/15 05:49:51;;;;;;;35.90;21.83;;;;;;;;;;5008236;28;20052;-66
2023/06/15 05:52:19;;;;;;;35.38;22.27;;;;;;;;;;5007218;28;20049;-66
2023/06/15 05:54:46;;;;;;;34.72;22.33;;;;;;;;;;5009392;28;20045;-65
2023/06/15 05:57:13;;;;;;;37.38;22.60;;;;;;;;;;4992371;28;20076;-66
2023/06/15 05:59:40;;;;;;;39.30;22.73;;;;;;;;;;5010152;28;20069;-64
2023/06/15 06:02:07;;;;;;;36.08;22.13;;;;;;;;;;5009178;28;20049;-66
2023/06/15 06:04:34;;;;;;;35.75;21.95;;;;;;;;;;5007267;28;20053;-66
2023/06/15 06:07:02;;;;;;;34.88;21.58;;;;;;;;;;5006689;28;20609;-67
2023/06/15 06:09:29;;;;;;;29.58;19.45;;;;;;;;;;5005902;28;20044;-67
2023/06/15 06:11:56;;;;;;;27.88;19.77;;;;;;;;;;5002911;28;20072;-66
2023/06/15 06:14:22;;;;;;;29.10;18.05;;;;;;;;;;5004768;28;20042;-66
2023/06/15 06:16:49;;;;;;;26.15;17.27;;;;;;;;;;5004850;28;20050;-66
2023/06/15 06:19:16;;;;;;;29.55;18.27;;;;;;;;;;5006146;28;20049;-66
2023/06/15 06:21:42;;;;;;;28.48;18.73;;;;;;;;;;5005419;28;20873;-66
2023/06/15 06:24:09;;;;;;;28.33;16.60;;;;;;;;;;5009418;28;20047;-66
2023/06/15 06:26:36;;;;;;;31.75;18.50;;;;;;;;;;5020951;28;20037;-67
2023/06/15 06:29:03;;;;;;;30.30;18.88;;;;;;;;;;5023988;28;20049;-66
2023/06/15 06:31:30;;;;;;;24.80;16.42;;;;;;;;;;5020799;28;20072;-66
2023/06/15 06:33:57;;;;;;;25.95;16.25;;;;;;;;;;5025705;28;20052;-64
2023/06/15 06:36:23;;;;;;;26.38;16.40;;;;;;;;;;5023763;28;20525;-65
2023/06/15 06:38:50;;;;;;;25.92;15.25;;;;;;;;;;5023547;28;20055;-65
2023/06/15 06:41:17;;;;;;;28.52;16.50;;;;;;;;;;5028993;28;20056;-65
2023/06/15 06:43:43;;;;;;;25.58;17.45;;;;;;;;;;5028578;28;20052;-65
2023/06/15 06:46:10;;;;;;;24.02;14.90;;;;;;;;;;5026914;28;20041;-66
2023/06/15 06:48:37;;;;;;;29.77;16.92;;;;;;;;;;5026698;28;20053;-66
2023/06/15 06:51:03;;;;;;;27.02;16.58;;;;;;;;;;5031660;28;20045;-65
2023/06/15 06:53:30;;;;;;;33.25;18.55;;;;;;;;;;5028714;28;20119;-66
2023/06/15 06:55:56;;;;;;;31.58;19.08;;;;;;;;;;5031421;28;21799;-65
2023/06/15 06:58:23;;;;;;;29.92;17.48;;;;;;;;;;5029989;28;20554;-65
2023/06/15 07:00:50;;;;;;;37.67;21.42;;;;;;;;;;5026859;28;20050;-65
2023/06/15 07:03:17;;;;;;;34.95;18.10;;;;;;;;;;5027217;28;20037;-65
2023/06/15 07:05:43;;;;;;;27.45;16.85;;;;;;;;;;5025924;28;20074;-66
2023/06/15 07:08:10;;;;;;;36.65;20.55;;;;;;;;;;5027676;28;20056;-66
2023/06/15 07:10:36;;;;;;;36.78;19.02;;;;;;;;;;5025702;28;20045;-65
2023/06/15 07:13:03;;;;;;;34.95;20.08;;;;;;;;;;5028320;28;20103;-67
2023/06/15 07:15:31;;;;;;;38.63;19.25;;;;;;;;;;5029864;28;20033;-65
2023/06/15 07:17:58;;;;;;;36.42;21.63;;;;;;;;;;5030062;28;20056;-65
2023/06/15 07:20:25;;;;;;;40.47;19.88;;;;;;;;;;5026717;28;20099;-66
2023/06/15 07:22:51;;;;;;;37.90;22.55;;;;;;;;;;5025008;28;20664;-66
2023/06/15 07:25:18;;;;;;;23.42;13.75;;;;;;;;;;5025308;28;20386;-65
2023/06/15 07:27:45;;;;;;;40.67;24.15;;;;;;;;;;5024760;28;20079;-68
2023/06/15 07:30:12;;;;;;;39.08;23.55;;;;;;;;;;5025023;28;20081;-66
2023/06/15 07:32:39;;;;;;;36.85;20.77;;;;;;;;;;5026641;28;20057;-65
2023/06/15 07:35:06;;;;;;;37.55;21.42;;;;;;;;;;5025594;28;20087;-67
2023/06/15 07:37:32;;;;;;;40.30;22.98;;;;;;;;;;5024990;28;20168;-67
2023/06/15 07:39:59;;;;;;;29.23;15.13;;;;;;;;;;5007510;28;20036;-65
2023/06/15 07:42:25;;;;;;;46.42;26.17;;;;;;;;;;5024485;28;20037;-67
2023/06/15 07:44:52;;;;;;;40.75;23.95;;;;;;;;;;5023532;28;20048;-66
2023/06/15 07:47:19;;;;;;;42.40;24.13;;;;;;;;;;5022527;28;20049;-66
2023/06/15 07:49:45;;;;;;;45.53;23.63;;;;;;;;;;5025597;28;20111;-66
2023/06/15 07:52:12;;;;;;;34.97;21.48;;;;;;;;;;5026188;28;20042;-67
2023/06/15 07:54:39;;;;;;;39.65;22.80;;;;;;;;;;5025010;28;20147;-64
2023/06/15 07:57:05;;;;;;;38.85;22.13;;;;;;;;;;5024318;28;20071;-65
2023/06/15 07:59:32;;;;;;;36.97;21.63;;;;;;;;;;5023071;28;20128;-64
2023/06/15 08:01:59;;;;;;;27.77;15.43;;;;;;;;;;5023211;28;20056;-65
2023/06/15 08:04:25;;;;;;;31.65;16.27;;;;;;;;;;5005985;28;20109;-65
2023/06/15 08:06:52;;;;;;;32.83;17.15;;;;;;;;;;5019803;28;20079;-65
2023/06/15 08:09:19;;;;;;;32.15;19.17;;;;;;;;;;4996116;28;20038;-65
2023/06/15 08:11:47;;;;;;;34.15;18.42;;;;;;;;;;5023440;28;21143;-65
2023/06/15 08:14:14;;;;;;;33.45;18.88;;;;;;;;;;5022859;28;20470;-65
2023/06/15 08:16:41;;;;;;;30.02;17.02;;;;;;;;;;5021301;28;20083;-64
2023/06/15 08:19:07;;;;;;;27.13;15.27;;;;;;;;;;5005808;28;20084;-65
2023/06/15 08:21:34;;;;;;;30.67;17.33;;;;;;;;;;5021105;28;20041;-65
2023/06/15 08:24:00;;;;;;;29.85;17.95;;;;;;;;;;5020396;28;20034;-64
2023/06/15 08:26:27;;;;;;;27.15;14.23;;;;;;;;;;5022252;28;20043;-63
2023/06/15 08:28:53;;;;;;;29.23;16.15;;;;;;;;;;5023113;28;20145;-64
2023/06/15 08:31:20;;;;;;;26.88;15.63;;;;;;;;;;5022210;28;20073;-67
2023/06/15 08:33:47;;;;;;;27.83;15.80;;;;;;;;;;5021710;28;20476;-64
2023/06/15 08:36:14;;;;;;;30.27;16.42;;;;;;;;;;5019545;28;20057;-64
2023/06/15 08:38:41;;;;;;;24.70;12.65;;;;;;;;;;5018187;28;20648;-65
2023/06/15 08:41:07;;;;;;;23.52;14.82;;;;;;;;;;5019058;28;20136;-64
2023/06/15 08:43:35;;;;;;;30.48;16.58;;;;;;;;;;5018353;28;20045;-64
2023/06/15 08:46:03;;;;;;;30.20;15.82;;;;;;;;;;5002268;28;20069;-64
2023/06/15 08:48:31;;;;;;;26.88;15.05;;;;;;;;;;5019069;28;20059;-66
2023/06/15 08:50:58;;;;;;;21.17;11.23;;;;;;;;;;5003331;28;20041;-66
2023/06/15 08:53:25;;;;;;;19.63;12.15;;;;;;;;;;5022401;28;20037;-66
2023/06/15 08:55:53;;;;;;;19.55;11.95;;;;;;;;;;5001638;28;20060;-67
2023/06/15 08:58:20;;;;;;;20.20;10.93;;;;;;;;;;5026011;28;20038;-66
2023/06/15 09:00:46;;;;;;;19.52;10.45;;;;;;;;;;5024164;28;20049;-67
2023/06/15 09:03:14;;;;;;;19.27;11.20;;;;;;;;;;5025354;28;20045;-65
2023/06/15 09:05:40;;;;;;;20.20;11.43;;;;;;;;;;5024890;28;20053;-65
2023/06/15 09:08:07;;;;;;;18.77;10.77;;;;;;;;;;5024032;28;20053;-66
2023/06/15 09:10:38;;;;;;;19.00;10.38;;;;;;;;;;5007170;28;20702;-66
2023/06/15 09:13:05;;;;;;;16.00;9.98;;;;;;;;;;5025126;28;20075;-65
2023/06/15 09:15:31;;;;;;;15.15;9.27;;;;;;;;;;5022345;28;20042;-67
2023/06/15 09:18:02;;;;;;;23.00;9.40;;;;;;;;;;5027032;28;20176;-66
2023/06/15 09:20:32;;;;;;;19.25;11.35;;;;;;;;;;5022478;28;20044;-66
2023/06/15 09:23:00;;;;;;;18.02;10.70;;;;;;;;;;5022020;28;20049;-66
2023/06/15 09:25:27;;;;;;;20.77;10.73;;;;;;;;;;5021125;28;20091;-67
2023/06/15 09:27:55;;;;;;;19.38;10.32;;;;;;;;;;5001544;28;20057;-66
2023/06/15 09:30:22;;;;;;;19.38;11.00;;;;;;;;;;5019644;28;20406;-65
2023/06/15 09:32:48;;;;;;;17.17;9.88;;;;;;;;;;5019017;28;20042;-66
2023/06/15 09:35:15;;;;;;;16.90;9.43;;;;;;;;;;5020599;28;20415;-65
2023/06/15 09:37:42;;;;;;;19.83;9.35;;;;;;;;;;5017678;28;20065;-66
2023/06/15 09:40:10;;;;;;;20.85;11.73;;;;;;;;;;5019099;28;20045;-67
2023/06/15 09:42:39;;;;;;;20.13;11.95;;;;;;;;;;5017985;28;20083;-67
2023/06/15 09:45:07;;;;;;;20.58;11.15;;;;;;;;;;5019246;28;20045;-67
2023/06/15 09:47:33;;;;;;;22.55;13.18;;;;;;;;;;5015054;28;20056;-65
2023/06/15 09:50:00;;;;;;;22.55;11.85;;;;;;;;;;5019688;28;20065;-66
2023/06/15 09:52:27;;;;;;;21.83;12.57;;;;;;;;;;5018583;28;20099;-65
2023/06/15 09:54:54;;;;;;;22.80;13.65;;;;;;;;;;5020006;28;20502;-65
2023/06/15 09:57:20;;;;;;;22.80;13.48;;;;;;;;;;5017993;28;20071;-65
2023/06/15 09:59:48;;;;;;;23.73;13.45;;;;;;;;;;5023977;28;20133;-64
2023/06/15 10:02:17;;;;;;;20.85;12.60;;;;;;;;;;5005970;28;20034;-66
2023/06/15 10:04:46;;;;;;;19.65;12.27;;;;;;;;;;5006159;28;20041;-65
2023/06/15 10:07:13;;;;;;;20.17;12.15;;;;;;;;;;5023193;28;22317;-65
2023/06/15 10:09:47;;;;;;;23.23;12.77;;;;;;;;;;5022912;28;20038;-66
2023/06/15 10:12:16;;;;;;;24.42;13.15;;;;;;;;;;5022844;28;20061;-65
2023/06/15 10:14:43;;;;;;;20.65;12.10;;;;;;;;;;5021262;28;20048;-65
2023/06/15 10:17:11;;;;;;;21.88;12.73;;;;;;;;;;5022199;28;20060;-65
2023/06/15 10:19:42;;;;;;;23.45;12.93;;;;;;;;;;5022776;28;20760;-65
2023/06/15 10:22:12;;;;;;;22.77;14.00;;;;;;;;;;5023662;28;20041;-65
2023/06/15 10:24:39;;;;;;;22.67;13.65;;;;;;;;;;5022244;28;20045;-66
2023/06/15 10:27:06;;;;;;;23.38;14.20;;;;;;;;;;5021463;28;20055;-64
2023/06/15 10:29:47;;;;;;;22.83;13.55;;;;;;;;;;5019433;28;20034;-63
2023/06/15 10:32:19;;;;;;;20.88;12.77;;;;;;;;;;5020176;28;20502;-66
2023/06/15 10:34:50;;;;;;;21.95;12.90;;;;;;;;;;5014932;28;20065;-65
2023/06/15 10:37:17;;;;;;;23.52;14.18;;;;;;;;;;5019143;28;20038;-64
2023/06/15 10:39:48;;;;;;;21.27;13.10;;;;;;;;;;5022869;28;20068;-67
2023/06/15 10:42:15;;;;;;;23.95;13.10;;;;;;;;;;5023395;28;20052;-65
2023/06/15 10:44:41;;;;;;;22.77;11.98;;;;;;;;;;5020895;28;20061;-65
2023/06/15 10:47:12;;;;;;;25.20;14.10;;;;;;;;;;5021776;28;20048;-63
2023/06/15 10:49:51;;;;;;;22.55;13.93;;;;;;;;;;5021089;28;20148;-66
2023/06/15 10:52:18;;;;;;;23.65;14.13;;;;;;;;;;5022434;28;20038;-65
2023/06/15 10:54:45;;;;;;;25.02;12.90;;;;;;;;;;5022844;28;20099;-65
2023/06/15 10:57:18;;;;;;;28.35;12.65;;;;;;;;;;5022999;28;20088;-66
2023/06/15 10:59:58;;;;;;;34.80;20.15;;;;;;;;;;5020002;28;20556;-66
2023/06/15 11:02:27;;;;;;;26.00;16.15;;;;;;;;;;5010669;28;20522;-65
2023/06/15 11:04:54;;;;;;;35.47;20.30;;;;;;;;;;5014739;28;20441;-66
2023/06/15 11:07:28;;;;;;;35.45;22.02;;;;;;;;;;5016681;28;20461;-66
2023/06/15 11:09:54;;;;;;;;;;;;;;;;;;5025967;28;20048;-66
2023/06/15 11:12:37;;;;;;;30.85;18.05;;;;;;;;;;5025041;28;20010;-68
2023/06/15 11:15:05;;;;;;;29.35;17.55;;;;;;;;;;5030028;28;20048;-66
2023/06/15 11:17:32;;;;;;;29.02;18.55;;;;;;;;;;5026961;28;20050;-66
2023/06/15 11:19:58;;;;;;;30.15;18.75;;;;;;;;;;5025133;28;20033;-66
2023/06/15 11:22:28;;;;;;;42.08;23.75;;;;;;;;;;5023785;28;20151;-66
2023/06/15 11:24:55;;;;;;;39.88;23.92;;;;;;;;;;5022968;28;20470;-66
2023/06/15 11:27:22;;;;;;;46.33;26.17;;;;;;;;;;5023083;28;20580;-66
2023/06/15 11:29:57;;;;;;;48.83;28.25;;;;;;;;;;5022614;28;20076;-66
2023/06/15 11:32:27;;;;;;;49.50;29.48;;;;;;;;;;5022765;28;20188;-66
2023/06/15 11:35:03;;;;;;;52.22;29.20;;;;;;;;;;5022941;28;20686;-66
2023/06/15 11:37:30;;;;;;;52.72;29.52;;;;;;;;;;5020603;28;20603;-65
2023/06/15 11:39:56;;;;;;;53.25;33.28;;;;;;;;;;5022120;28;20532;-66
2023/06/15 11:42:23;;;;;;;57.70;32.85;;;;;;;;;;5021421;28;20485;-65
2023/06/15 11:44:50;;;;;;;56.38;32.80;;;;;;;;;;5021941;28;20044;-64
2023/06/15 11:47:17;;;;;;;64.13;36.40;;;;;;;;;;5024198;28;20037;-65
2023/06/15 11:49:46;;;;;;;61.13;34.72;;;;;;;;;;5024670;28;20962;-67
2023/06/15 11:52:13;;;;;;;60.70;35.15;;;;;;;;;;5025999;28;20042;-66
2023/06/15 11:54:39;;;;;;;63.95;36.80;;;;;;;;;;5026566;28;20037;-67
2023/06/15 11:57:06;;;;;;;68.57;37.33;;;;;;;;;;5024588;28;20490;-67
2023/06/15 11:59:35;;;;;;;61.47;33.42;;;;;;;;;;4997545;28;20057;-65
2023/06/15 12:02:03;;;;;;;65.88;35.80;;;;;;;;;;5018312;28;20053;-66
2023/06/15 12:04:33;;;;;;;62.15;37.42;;;;;;;;;;5012635;28;20049;-64
2023/06/15 12:07:04;;;;;;;64.82;37.33;;;;;;;;;;5017247;28;20041;-68
2023/06/15 12:09:32;;;;;;;72.57;38.63;;;;;;;;;;5019514;28;20100;-66
2023/06/15 12:11:58;;;;;;;62.70;37.53;;;;;;;;;;5023105;28;20080;-66
2023/06/15 12:14:25;;;;;;;65.00;39.13;;;;;;;;;;5021861;28;20087;-66
2023/06/15 12:16:53;;;;;;;65.53;38.72;;;;;;;;;;5022891;28;20068;-66
2023/06/15 12:19:22;;;;;;;67.50;39.58;;;;;;;;;;5021343;28;20639;-67
2023/06/15 12:21:49;;;;;;;67.50;38.90;;;;;;;;;;5020871;28;20088;-66
2023/06/15 12:24:16;;;;;;;70.25;37.58;;;;;;;;;;5021128;28;20521;-66
2023/06/15 12:26:49;;;;;;;69.25;36.70;;;;;;;;;;5018986;28;20107;-67
2023/06/15 12:29:17;;;;;;;64.70;37.05;;;;;;;;;;5019837;28;20048;-66
2023/06/15 12:31:47;;;;;;;65.72;36.90;;;;;;;;;;5020671;28;20210;-68
2023/06/15 12:34:14;;;;;;;65.97;36.25;;;;;;;;;;5019403;28;20089;-68
2023/06/15 12:36:40;;;;;;;60.72;35.60;;;;;;;;;;5000294;28;20098;-67
2023/06/15 12:39:13;;;;;;;62.53;35.10;;;;;;;;;;5020292;28;20441;-66
2023/06/15 12:41:43;;;;;;;59.13;32.45;;;;;;;;;;5019749;28;21556;-65
2023/06/15 12:44:10;;;;;;;57.95;33.72;;;;;;;;;;5019484;28;20076;-67
2023/06/15 12:46:40;;;;;;;62.28;34.10;;;;;;;;;;5019568;28;20179;-69
2023/06/15 12:49:07;;;;;;;69.97;37.15;;;;;;;;;;5019644;28;20049;-66
2023/06/15 12:51:34;;;;;;;65.97;35.30;;;;;;;;;;5012529;28;20163;-63
2023/06/15 12:54:02;;;;;;;57.92;29.90;;;;;;;;;;5018659;28;21380;-63
2023/06/15 12:56:29;;;;;;;69.38;38.97;;;;;;;;;;5012310;28;20136;-63
2023/06/15 12:58:55;;;;;;;77.00;39.63;;;;;;;;;;5013981;28;20037;-64
2023/06/15 13:01:23;;;;;;;68.80;37.88;;;;;;;;;;4997433;28;20060;-65
2023/06/15 13:03:49;;;;;;;63.53;35.88;;;;;;;;;;5018593;28;20128;-63
2023/06/15 13:06:16;;;;;;;75.43;38.70;;;;;;;;;;5002634;28;20143;-67
2023/06/15 13:08:46;;;;;;;58.72;34.85;;;;;;;;;;5021352;28;20041;-69
2023/06/15 13:11:12;;;;;;;77.03;39.65;;;;;;;;;;5019954;28;20041;-67
2023/06/15 13:13:39;;;;;;;69.47;36.72;;;;;;;;;;4992319;28;20045;-68
2023/06/15 13:16:06;;;;;;;66.90;39.03;;;;;;;;;;5021029;28;20061;-66
2023/06/15 13:18:32;;;;;;;67.47;39.40;;;;;;;;;;5019876;28;21804;-66
2023/06/15 13:21:00;;;;;;;70.10;39.90;;;;;;;;;;5002313;28;20064;-67
2023/06/15 13:23:26;;;;;;;76.13;39.08;;;;;;;;;;5017022;28;20409;-66
2023/06/15 13:25:53;;;;;;;66.50;37.15;;;;;;;;;;5019531;28;20033;-67
2023/06/15 13:28:20;;;;;;;72.68;39.10;;;;;;;;;;5020161;28;20541;-68
2023/06/15 13:30:47;;;;;;;71.25;37.33;;;;;;;;;;5019522;28;20037;-67
2023/06/15 13:33:13;;;;;;;70.72;37.45;;;;;;;;;;5018213;28;20064;-67
2023/06/15 13:35:40;;;;;;;68.55;38.75;;;;;;;;;;5017735;28;20057;-67
2023/06/15 13:38:07;;;;;;;68.72;36.00;;;;;;;;;;5019813;28;20046;-67
2023/06/15 13:40:33;;;;;;;69.95;39.17;;;;;;;;;;4999293;28;20120;-67
2023/06/15 13:43:00;;;;;;;70.88;39.17;;;;;;;;;;5020209;28;20076;-67
2023/06/15 13:45:27;;;;;;;69.97;38.90;;;;;;;;;;5010501;28;20038;-67
2023/06/15 13:47:55;;;;;;;73.20;40.22;;;;;;;;;;5006690;28;20522;-67
2023/06/15 13:50:22;;;;;;;67.75;37.40;;;;;;;;;;5002137;28;20134;-67
2023/06/15 13:52:49;;;;;;;71.13;40.15;;;;;;;;;;5014112;28;20584;-68
2023/06/15 13:55:17;;;;;;;70.82;40.72;;;;;;;;;;5010408;28;20045;-66
2023/06/15 13:57:44;;;;;;;75.15;41.03;;;;;;;;;;5020031;28;21606;-65
2023/06/15 14:00:11;;;;;;;70.00;36.95;;;;;;;;;;5002840;28;20037;-67
2023/06/15 14:02:38;;;;;;;61.58;36.92;;;;;;;;;;5020194;28;20100;-66
2023/06/15 14:05:05;;;;;;;68.75;41.05;;;;;;;;;;5013364;28;20041;-67
2023/06/15 14:07:34;;;;;;;72.30;40.72;;;;;;;;;;5021496;28;20134;-70
2023/06/15 14:10:01;;;;;;;77.20;41.92;;;;;;;;;;5004325;28;20076;-68
2023/06/15 14:12:27;;;;;;;77.13;41.45;;;;;;;;;;5021578;28;20096;-66
2023/06/15 14:14:54;;;;;;;74.38;41.45;;;;;;;;;;5020451;28;20638;-67
2023/06/15 14:17:20;;;;;;;71.25;40.45;;;;;;;;;;5002088;28;20038;-67
2023/06/15 14:19:47;;;;;;;75.43;42.25;;;;;;;;;;4994464;28;20044;-68
2023/06/15 14:22:14;;;;;;;72.10;39.53;;;;;;;;;;4999591;28;20057;-67
2023/06/15 14:24:41;;;;;;;69.00;40.05;;;;;;;;;;5019342;28;20084;-67
2023/06/15 14:27:08;;;;;;;59.63;33.08;;;;;;;;;;5018987;28;20065;-68